createdAt,value
2023-04-18T00:01:22.366Z,11.67
2023-04-18T00:04:11.552Z,11.17
2023-04-18T00:07:02.085Z,12.50
2023-04-18T00:09:51.254Z,12.10
2023-04-18T00:12:40.496Z,11.00
2023-04-18T00:15:30.549Z,12.27
2023-04-18T00:18:19.496Z,11.63
2023-04-18T00:21:08.586Z,12.67
2023-04-18T00:23:59.071Z,10.40
2023-04-18T00:26:48.918Z,11.00
2023-04-18T00:29:37.733Z,11.23
2023-04-18T00:32:26.748Z,12.80
2023-04-18T00:35:15.871Z,12.97
2023-04-18T00:38:04.690Z,12.10
2023-04-18T00:40:54.857Z,13.03
2023-04-18T00:43:43.782Z,12.60
2023-04-18T00:46:32.755Z,13.60
2023-04-18T00:49:22.959Z,12.43
2023-04-18T00:52:13.243Z,12.83
2023-04-18T00:55:03.836Z,13.87
2023-04-18T00:57:54.425Z,12.90
2023-04-18T01:00:43.628Z,11.13
2023-04-18T01:03:34.839Z,13.20
2023-04-18T01:06:24.513Z,12.13
2023-04-18T01:09:14.736Z,12.60
2023-04-18T01:12:04.267Z,13.30
2023-04-18T01:14:54.682Z,13.33
2023-04-18T01:17:43.650Z,12.50
2023-04-18T01:20:32.671Z,12.47
2023-04-18T01:23:22.384Z,13.97
2023-04-18T01:26:13.217Z,12.80
2023-04-18T01:29:02.227Z,14.77
2023-04-18T01:31:52.349Z,14.47
2023-04-18T01:34:41.514Z,15.47
2023-04-18T01:37:32.459Z,14.67
2023-04-18T01:40:22.855Z,15.10
2023-04-18T01:43:13.466Z,13.70
2023-04-18T01:46:02.452Z,16.00
2023-04-18T01:48:51.345Z,15.87
2023-04-18T01:51:43.167Z,16.67
2023-04-18T01:54:32.088Z,14.20
2023-04-18T01:57:20.953Z,14.70
2023-04-18T02:00:14.616Z,13.83
2023-04-18T02:03:04.212Z,15.33
2023-04-18T02:05:53.931Z,15.37
2023-04-18T02:08:42.715Z,15.80
2023-04-18T02:11:31.697Z,16.40
2023-04-18T02:14:20.499Z,16.53
2023-04-18T02:17:10.685Z,15.13
2023-04-18T02:20:00.110Z,13.97
2023-04-18T02:22:49.462Z,15.77
2023-04-18T02:25:38.322Z,16.13
2023-04-18T02:28:27.252Z,16.17
2023-04-18T02:31:17.072Z,16.20
2023-04-18T02:34:07.830Z,16.60
2023-04-18T02:36:56.754Z,14.80
2023-04-18T02:39:45.832Z,16.03
2023-04-18T02:42:34.922Z,15.67
2023-04-18T02:45:23.782Z,15.47
2023-04-18T02:48:12.782Z,14.87
2023-04-18T02:51:05.421Z,16.10
2023-04-18T02:53:57.097Z,14.80
2023-04-18T02:56:48.768Z,16.53
2023-04-18T02:59:45.132Z,14.40
2023-04-18T03:02:54.180Z,16.23
2023-04-18T03:06:07.927Z,16.23
2023-04-18T03:08:57.520Z,16.43
2023-04-18T03:11:47.646Z,17.10
2023-04-18T03:14:37.966Z,15.10
2023-04-18T03:17:27.760Z,16.57
2023-04-18T03:20:17.068Z,14.77
2023-04-18T03:23:07.211Z,15.83
2023-04-18T03:25:57.203Z,17.53
2023-04-18T03:28:46.442Z,15.10
2023-04-18T03:31:35.788Z,15.10
2023-04-18T03:34:24.624Z,14.57
2023-04-18T03:37:15.056Z,15.13
2023-04-18T03:40:13.138Z,17.17
2023-04-18T03:43:03.450Z,16.00
2023-04-18T03:45:53.784Z,17.60
2023-04-18T03:48:42.983Z,15.97
2023-04-18T03:51:43.223Z,16.90
2023-04-18T03:54:32.234Z,15.60
2023-04-18T03:57:22.464Z,15.80
2023-04-18T04:00:14.127Z,16.23
2023-04-18T04:03:06.964Z,16.60
2023-04-18T04:05:56.837Z,18.23
2023-04-18T04:08:46.020Z,17.20
2023-04-18T04:11:37.172Z,17.20
2023-04-18T04:14:30.119Z,18.53
2023-04-18T04:17:19.051Z,17.50
2023-04-18T04:20:09.782Z,16.97
2023-04-18T04:22:59.988Z,17.07
2023-04-18T04:25:49.798Z,17.40
2023-04-18T04:28:55.916Z,17.63
2023-04-18T04:31:48.505Z,15.93
2023-04-18T04:34:46.802Z,16.50
2023-04-18T04:37:35.947Z,18.43
2023-04-18T04:40:35.004Z,15.50
2023-04-18T04:43:31.507Z,18.47
2023-04-18T04:46:20.919Z,16.90
2023-04-18T04:49:13.352Z,16.97
2023-04-18T04:52:02.870Z,18.97
2023-04-18T04:54:53.061Z,16.90
2023-04-18T04:57:44.780Z,17.03
2023-04-18T05:00:54.047Z,18.67
2023-04-18T05:03:43.477Z,17.23
2023-04-18T05:06:34.599Z,18.23
2023-04-18T05:09:23.560Z,16.13
2023-04-18T05:12:12.480Z,16.50
2023-04-18T05:15:01.465Z,15.80
2023-04-18T05:17:50.623Z,18.10
2023-04-18T05:20:40.146Z,16.67
2023-04-18T05:23:30.577Z,18.30
2023-04-18T05:26:19.757Z,18.63
2023-04-18T05:29:11.367Z,20.27
2023-04-18T05:32:00.462Z,17.23
2023-04-18T05:34:53.160Z,19.10
2023-04-18T05:37:42.902Z,17.33
2023-04-18T05:40:33.247Z,16.07
2023-04-18T05:43:23.330Z,16.63
2023-04-18T05:46:13.352Z,16.40
2023-04-18T05:49:03.428Z,16.33
2023-04-18T05:51:53.207Z,16.73
2023-04-18T05:54:42.219Z,17.90
2023-04-18T05:57:33.206Z,16.67
2023-04-18T06:00:23.340Z,16.70
2023-04-18T06:03:12.457Z,15.10
2023-04-18T06:06:01.637Z,16.50
2023-04-18T06:08:51.913Z,16.87
2023-04-18T06:11:40.817Z,18.40
2023-04-18T06:14:31.226Z,16.83
2023-04-18T06:17:21.357Z,16.50
2023-04-18T06:20:11.872Z,16.87
2023-04-18T06:23:05.005Z,17.60
2023-04-18T06:25:53.987Z,16.73
2023-04-18T06:28:42.993Z,16.97
2023-04-18T06:31:33.500Z,17.30
2023-04-18T06:34:22.444Z,16.90
2023-04-18T06:37:12.117Z,17.33
2023-04-18T06:40:01.008Z,15.90
2023-04-18T06:42:50.258Z,16.33
2023-04-18T06:45:40.071Z,17.10
2023-04-18T06:48:31.427Z,17.47
2023-04-18T06:51:21.013Z,15.80
2023-04-18T06:54:09.936Z,17.00
2023-04-18T06:56:59.208Z,16.30
2023-04-18T06:59:49.044Z,16.90
2023-04-18T07:02:40.020Z,16.47
2023-04-18T07:05:31.330Z,14.77
2023-04-18T07:08:20.873Z,15.80
2023-04-18T07:11:10.076Z,17.23
2023-04-18T07:13:59.482Z,16.83
2023-04-18T07:16:49.373Z,16.43
2023-04-18T07:19:39.334Z,15.77
2023-04-18T07:22:29.516Z,15.67
2023-04-18T07:25:19.241Z,15.40
2023-04-18T07:28:09.276Z,16.33
2023-04-18T07:30:58.250Z,15.20
2023-04-18T07:33:49.005Z,16.40
2023-04-18T07:36:39.155Z,16.53
2023-04-18T07:39:29.480Z,16.43
2023-04-18T07:42:18.542Z,15.57
2023-04-18T07:45:08.778Z,15.30
2023-04-18T07:47:57.663Z,14.30
2023-04-18T07:50:46.969Z,16.07
2023-04-18T07:53:35.890Z,15.00
2023-04-18T07:56:26.426Z,15.97
2023-04-18T07:59:17.066Z,15.30
2023-04-18T08:02:07.357Z,14.40
2023-04-18T08:04:56.527Z,14.20
2023-04-18T08:07:47.162Z,13.83
2023-04-18T08:10:36.865Z,15.57
2023-04-18T08:13:27.190Z,14.53
2023-04-18T08:16:17.452Z,14.03
2023-04-18T08:19:07.036Z,15.53
2023-04-18T08:21:56.004Z,14.50
2023-04-18T08:25:01.043Z,13.83
2023-04-18T08:27:53.086Z,13.03
2023-04-18T08:30:44.085Z,15.43
2023-04-18T08:33:33.118Z,15.43
2023-04-18T08:36:22.572Z,14.77
2023-04-18T08:39:15.642Z,13.30
2023-04-18T08:42:07.441Z,16.03
2023-04-18T08:44:57.976Z,15.00
2023-04-18T08:47:48.452Z,15.27
2023-04-18T08:50:37.484Z,13.90
2023-04-18T08:53:29.369Z,13.70
2023-04-18T08:56:22.349Z,14.20
2023-04-18T08:59:11.610Z,14.37
2023-04-18T09:02:01.625Z,14.30
2023-04-18T09:04:53.597Z,14.10
2023-04-18T09:07:43.665Z,13.77
2023-04-18T09:10:36.568Z,12.90
2023-04-18T09:13:41.099Z,13.63
2023-04-18T09:16:46.747Z,14.50
2023-04-18T09:19:36.024Z,13.93
2023-04-18T09:22:27.183Z,13.17
2023-04-18T09:25:27.503Z,14.70
2023-04-18T09:28:26.953Z,13.63
2023-04-18T09:31:17.653Z,12.70
2023-04-18T09:34:06.973Z,13.37
2023-04-18T09:37:10.743Z,13.23
2023-04-18T09:40:01.294Z,13.20
2023-04-18T09:42:53.116Z,13.30
2023-04-18T09:45:43.441Z,13.47
2023-04-18T09:48:33.386Z,13.00
2023-04-18T09:51:23.128Z,12.67
2023-04-18T09:54:16.773Z,15.23
2023-04-18T09:57:13.569Z,13.50
2023-04-18T10:00:17.518Z,13.63
2023-04-18T10:03:09.819Z,15.13
2023-04-18T10:05:59.114Z,12.23
2023-04-18T10:08:49.997Z,12.50
2023-04-18T10:11:39.527Z,12.90
2023-04-18T10:14:32.939Z,13.43
2023-04-18T10:17:22.508Z,12.30
2023-04-18T10:20:21.157Z,12.00
2023-04-18T10:23:38.649Z,11.70
2023-04-18T10:26:50.272Z,12.57
2023-04-18T10:29:51.881Z,12.43
2023-04-18T10:32:42.643Z,12.90
2023-04-18T10:35:31.680Z,10.70
2023-04-18T10:38:25.431Z,12.33
2023-04-18T10:41:27.104Z,12.00
2023-04-18T10:44:23.350Z,10.40
2023-04-18T10:47:23.614Z,12.13
2023-04-18T10:50:14.059Z,10.70
2023-04-18T10:53:03.337Z,11.80
2023-04-18T10:55:58.246Z,10.60
2023-04-18T10:58:52.971Z,10.43
2023-04-18T11:01:47.591Z,13.50
2023-04-18T11:04:44.676Z,10.23
2023-04-18T11:07:36.081Z,10.40
2023-04-18T11:10:27.121Z,10.17
2023-04-18T11:13:17.130Z,8.70
2023-04-18T11:16:06.649Z,10.47
2023-04-18T11:18:55.989Z,10.73
2023-04-18T11:21:46.465Z,10.83
2023-04-18T11:24:35.751Z,10.87
2023-04-18T11:27:27.024Z,11.17
2023-04-18T11:30:17.174Z,11.50
2023-04-18T11:33:08.898Z,9.00
2023-04-18T11:35:59.830Z,12.30
2023-04-18T11:38:51.735Z,11.20
2023-04-18T11:41:44.286Z,10.20
2023-04-18T11:44:36.060Z,10.20
2023-04-18T11:47:27.034Z,11.43
2023-04-18T11:50:16.605Z,9.83
2023-04-18T11:53:06.266Z,10.60
2023-04-18T11:55:58.516Z,9.80
2023-04-18T11:58:48.383Z,9.80
2023-04-18T12:01:38.383Z,10.20
2023-04-18T12:04:27.793Z,10.27
2023-04-18T12:07:32.889Z,9.30
2023-04-18T12:10:29.869Z,9.70
2023-04-18T12:13:26.997Z,8.40
2023-04-18T12:16:16.106Z,8.50
2023-04-18T12:19:05.955Z,8.80
2023-04-18T12:22:01.512Z,8.63
2023-04-18T12:25:27.820Z,8.80
2023-04-18T12:28:18.641Z,7.40
2023-04-18T12:31:08.965Z,7.10
2023-04-18T12:34:00.112Z,7.63
2023-04-18T12:36:49.405Z,7.70
2023-04-18T12:39:39.290Z,6.80
2023-04-18T12:42:28.207Z,7.40
2023-04-18T12:45:18.561Z,7.10
2023-04-18T12:48:11.848Z,7.87
2023-04-18T12:51:01.562Z,7.10
2023-04-18T12:53:50.661Z,9.53
2023-04-18T12:56:40.892Z,7.53
2023-04-18T12:59:30.186Z,7.73
2023-04-18T13:02:19.347Z,8.53
2023-04-18T13:05:12.769Z,8.27
2023-04-18T13:10:53.845Z,8.43
2023-04-18T13:13:42.661Z,7.90
2023-04-18T13:16:31.796Z,7.73
2023-04-18T13:19:20.689Z,7.43
2023-04-18T13:22:10.934Z,7.90
2023-04-18T13:25:00.615Z,7.93
2023-04-18T13:27:50.351Z,9.33
2023-04-18T13:30:39.312Z,7.47
2023-04-18T13:33:29.065Z,6.60
2023-04-18T13:36:18.846Z,6.93
2023-04-18T13:39:09.623Z,6.63
2023-04-18T13:41:58.589Z,6.37
2023-04-18T13:44:48.472Z,6.10
2023-04-18T13:47:37.572Z,5.50
2023-04-18T13:50:26.542Z,7.00
2023-04-18T13:53:16.249Z,6.27
2023-04-18T13:56:07.540Z,6.40
2023-04-18T13:58:56.816Z,6.60
2023-04-18T14:01:46.574Z,6.33
2023-04-18T14:04:36.584Z,7.07
2023-04-18T14:07:26.393Z,6.40
2023-04-18T14:10:15.710Z,6.87
2023-04-18T14:13:06.234Z,7.07
2023-04-18T14:15:55.445Z,7.07
2023-04-18T14:18:44.420Z,7.93
2023-04-18T14:21:33.512Z,7.70
2023-04-18T14:24:23.416Z,7.73
2023-04-18T14:27:13.389Z,8.17
2023-04-18T14:30:04.313Z,6.90
2023-04-18T14:32:53.269Z,7.43
2023-04-18T14:35:42.645Z,8.43
2023-04-18T14:38:31.625Z,7.33
2023-04-18T14:41:21.086Z,8.87
2023-04-18T14:44:10.736Z,6.67
2023-04-18T14:47:05.629Z,6.77
2023-04-18T14:49:54.536Z,6.50
2023-04-18T14:52:43.684Z,6.00
2023-04-18T14:55:34.448Z,7.30
2023-04-18T14:58:23.468Z,5.33
2023-04-18T15:01:12.510Z,6.27
2023-04-18T15:04:04.932Z,6.30
2023-04-18T15:06:53.995Z,5.83
2023-04-18T15:09:44.475Z,5.50
2023-04-18T15:12:34.685Z,6.30
2023-04-18T15:15:25.151Z,6.17
2023-04-18T15:18:14.687Z,6.30
2023-04-18T15:21:05.380Z,6.60
2023-04-18T15:23:54.356Z,7.00
2023-04-18T15:26:43.830Z,5.73
2023-04-18T15:29:33.600Z,6.90
2023-04-18T15:32:23.163Z,7.70
2023-04-18T15:35:13.729Z,7.63
2023-04-18T15:38:04.217Z,6.90
2023-04-18T15:40:53.448Z,6.73
2023-04-18T15:43:42.930Z,7.37
2023-04-18T15:46:32.766Z,7.23
2023-04-18T15:49:22.042Z,7.90
2023-04-18T15:52:10.948Z,8.30
2023-04-18T15:55:01.769Z,10.37
2023-04-18T15:57:50.814Z,7.63
2023-04-18T16:00:39.958Z,7.30
2023-04-18T16:03:29.019Z,8.53
2023-04-18T16:06:21.299Z,7.67
2023-04-18T16:09:10.154Z,7.90
2023-04-18T16:12:01.545Z,8.90
2023-04-18T16:14:50.648Z,9.57
2023-04-18T16:17:39.826Z,10.07
2023-04-18T16:20:29.125Z,7.60
2023-04-18T16:23:20.251Z,7.70
2023-04-18T16:26:09.682Z,7.03
2023-04-18T16:29:00.127Z,8.50
2023-04-18T16:31:51.559Z,7.63
2023-04-18T16:34:40.799Z,7.30
2023-04-18T16:37:29.752Z,7.00
2023-04-18T16:40:18.663Z,8.13
2023-04-18T16:43:07.600Z,6.10
2023-04-18T16:46:00.784Z,6.47
2023-04-18T16:48:51.122Z,6.70
2023-04-18T16:51:41.346Z,6.77
2023-04-18T16:54:30.622Z,6.00
2023-04-18T16:57:19.577Z,6.43
2023-04-18T17:00:13.469Z,6.30
2023-04-18T17:03:06.819Z,6.50
2023-04-18T17:05:56.069Z,6.30
2023-04-18T17:08:45.786Z,6.70
2023-04-18T17:11:39.576Z,5.83
2023-04-18T17:14:28.943Z,6.10
2023-04-18T17:17:17.867Z,5.27
2023-04-18T17:20:09.968Z,5.20
2023-04-18T17:22:59.409Z,6.13
2023-04-18T17:25:48.461Z,6.23
2023-04-18T17:28:38.866Z,6.03
2023-04-18T17:31:28.513Z,6.27
2023-04-18T17:34:17.552Z,5.50
2023-04-18T17:37:08.229Z,5.50
2023-04-18T17:39:58.350Z,5.50
2023-04-18T17:42:47.309Z,6.10
2023-04-18T17:45:36.350Z,5.93
2023-04-18T17:48:25.894Z,6.30
2023-04-18T17:51:16.274Z,6.60
2023-04-18T17:54:09.666Z,6.37
2023-04-18T17:56:58.763Z,6.20
2023-04-18T17:59:47.928Z,6.50
2023-04-18T18:02:37.194Z,7.10
2023-04-18T18:05:27.613Z,7.40
2023-04-18T18:08:17.167Z,6.93
2023-04-18T18:11:07.772Z,7.60
2023-04-18T18:13:57.461Z,6.70
2023-04-18T18:16:46.772Z,7.10
2023-04-18T18:19:37.150Z,7.00
2023-04-18T18:22:26.275Z,7.10
2023-04-18T18:25:15.457Z,8.40
2023-04-18T18:28:07.187Z,7.07
2023-04-18T18:30:56.217Z,8.13
2023-04-18T18:33:45.370Z,8.37
2023-04-18T18:36:48.153Z,7.23
2023-04-18T18:39:37.741Z,8.60
2023-04-18T18:42:26.799Z,8.27
2023-04-18T18:45:23.921Z,8.40
2023-04-18T18:48:14.762Z,7.97
2023-04-18T18:51:06.745Z,8.53
2023-04-18T18:53:56.780Z,7.83
2023-04-18T18:56:47.884Z,8.30
2023-04-18T18:59:36.888Z,8.40
2023-04-18T19:02:38.187Z,7.60
2023-04-18T19:05:28.087Z,7.53
2023-04-18T19:08:24.896Z,7.67
2023-04-18T19:11:21.045Z,7.60
2023-04-18T19:14:14.384Z,8.20
2023-04-18T19:17:08.656Z,7.93
2023-04-18T19:20:04.426Z,8.70
2023-04-18T19:22:54.428Z,8.40
2023-04-18T19:25:47.380Z,8.70
2023-04-18T19:28:47.995Z,9.32
2023-04-18T19:31:37.744Z,7.63
2023-04-18T19:34:28.744Z,9.73
2023-04-18T19:37:27.102Z,8.40
2023-04-18T19:40:16.260Z,8.50
2023-04-18T19:43:05.340Z,8.53
2023-04-18T19:45:55.369Z,8.30
2023-04-18T19:48:44.858Z,8.57
2023-04-18T19:51:44.843Z,9.17
2023-04-18T19:54:42.180Z,9.03
2023-04-18T19:57:42.156Z,9.27
2023-04-18T20:00:40.968Z,9.00
2023-04-18T20:03:46.130Z,10.00
2023-04-18T20:06:45.686Z,10.23
2023-04-18T20:09:35.106Z,9.33
2023-04-18T20:12:25.689Z,10.00
2023-04-18T20:15:14.850Z,9.20
2023-04-18T20:18:03.863Z,9.90
2023-04-18T20:20:52.862Z,9.70
2023-04-18T20:23:42.727Z,10.10
2023-04-18T20:26:31.620Z,10.10
2023-04-18T20:29:22.062Z,9.50
2023-04-18T20:32:13.076Z,10.77
2023-04-18T20:35:02.828Z,9.97
2023-04-18T20:37:51.691Z,10.23
2023-04-18T20:40:42.720Z,11.17
2023-04-18T20:43:37.297Z,10.87
2023-04-18T20:46:27.664Z,10.30
2023-04-18T20:49:16.790Z,10.83
2023-04-18T20:52:09.710Z,11.80
2023-04-18T20:54:58.728Z,11.33
2023-04-18T20:57:47.865Z,10.13
2023-04-18T21:00:37.182Z,11.03
2023-04-18T21:03:28.424Z,11.23
2023-04-18T21:06:19.071Z,10.70
2023-04-18T21:09:08.449Z,11.10
2023-04-18T21:11:58.443Z,11.10
2023-04-18T21:14:48.065Z,11.97
2023-04-18T21:17:36.845Z,11.40
2023-04-18T21:20:27.311Z,9.90
2023-04-18T21:23:16.174Z,11.17
2023-04-18T21:26:05.079Z,11.00
2023-04-18T21:28:59.464Z,11.23
2023-04-18T21:31:49.328Z,12.10
2023-04-18T21:34:38.342Z,11.33
2023-04-18T21:37:28.948Z,11.30
2023-04-18T21:40:18.232Z,10.63
2023-04-18T21:43:07.145Z,10.97
2023-04-18T21:45:56.658Z,12.63
2023-04-18T21:48:48.559Z,10.53
2023-04-18T21:51:37.603Z,11.33
2023-04-18T21:54:27.900Z,11.20
2023-04-18T21:57:16.921Z,11.37
2023-04-18T22:00:10.263Z,12.03
2023-04-18T22:03:02.041Z,11.00
2023-04-18T22:05:52.223Z,10.50
2023-04-18T22:08:42.096Z,12.27
2023-04-18T22:11:33.377Z,9.97
2023-04-18T22:14:22.589Z,10.53
2023-04-18T22:17:11.486Z,11.30
2023-04-18T22:20:00.341Z,11.67
2023-04-18T22:22:49.562Z,10.90
2023-04-18T22:25:38.581Z,10.70
2023-04-18T22:28:28.970Z,10.80
2023-04-18T22:31:17.866Z,11.00
2023-04-18T22:34:06.807Z,12.10
2023-04-18T22:36:55.778Z,10.13
2023-04-18T22:39:44.686Z,11.73
2023-04-18T22:42:34.855Z,11.03
2023-04-18T22:45:25.908Z,11.33
2023-04-18T22:48:14.842Z,11.70
2023-04-18T22:51:03.751Z,11.90
2023-04-18T22:53:52.581Z,11.43
2023-04-18T22:56:41.809Z,10.80
2023-04-18T22:59:30.681Z,10.77
2023-04-18T23:02:21.069Z,10.70
2023-04-18T23:05:10.816Z,12.10
2023-04-18T23:08:00.704Z,11.70
2023-04-18T23:10:49.911Z,10.67
2023-04-18T23:13:38.721Z,11.23
2023-04-18T23:16:28.161Z,10.90
2023-04-18T23:19:18.500Z,10.97
2023-04-18T23:22:07.303Z,11.63
2023-04-18T23:24:56.756Z,10.50
2023-04-18T23:27:45.641Z,9.63
2023-04-18T23:30:37.788Z,10.73
2023-04-18T23:33:26.605Z,10.30
2023-04-18T23:36:16.803Z,11.90
2023-04-18T23:39:05.722Z,11.40
2023-04-18T23:41:54.724Z,11.30
2023-04-18T23:44:43.605Z,11.23
2023-04-18T23:47:32.632Z,11.47
2023-04-18T23:50:21.488Z,11.33
2023-04-18T23:53:11.823Z,11.90
2023-04-18T23:56:00.678Z,10.90
2023-04-18T23:58:49.870Z,11.80
